createdAt,value
2023-02-03T00:02:56.928Z,7.11
2023-02-03T00:06:02.968Z,6.84
2023-02-03T00:09:06.829Z,6.78
2023-02-03T00:12:11.169Z,6.89
2023-02-03T00:15:16.315Z,6.79
2023-02-03T00:18:20.024Z,7.00
2023-02-03T00:21:23.713Z,6.87
2023-02-03T00:24:27.559Z,6.76
2023-02-03T00:27:31.047Z,7.03
2023-02-03T00:30:37.989Z,7.02
2023-02-03T00:33:41.625Z,7.02
2023-02-03T00:36:46.913Z,7.14
2023-02-03T00:39:50.667Z,6.98
2023-02-03T00:42:55.222Z,7.35
2023-02-03T00:46:00.473Z,7.36
2023-02-03T00:49:04.816Z,7.33
2023-02-03T00:52:08.373Z,7.40
2023-02-03T00:55:12.061Z,7.36
2023-02-03T00:58:15.670Z,7.48
2023-02-03T01:01:20.789Z,7.54
2023-02-03T01:04:26.906Z,7.46
2023-02-03T01:07:33.645Z,7.42
2023-02-03T01:10:39.417Z,7.34
2023-02-03T01:13:43.233Z,7.34
2023-02-03T01:16:48.282Z,7.14
2023-02-03T01:19:52.645Z,7.22
2023-02-03T01:22:56.217Z,7.27
2023-02-03T01:26:04.437Z,7.33
2023-02-03T01:29:08.556Z,7.23
2023-02-03T01:32:13.601Z,7.25
2023-02-03T01:35:17.196Z,7.21
2023-02-03T01:38:20.943Z,7.27
2023-02-03T01:41:27.070Z,7.27
2023-02-03T01:44:41.738Z,7.44
2023-02-03T01:47:50.593Z,7.26
2023-02-03T01:50:54.642Z,7.18
2023-02-03T01:53:58.693Z,7.26
2023-02-03T01:57:06.697Z,7.35
2023-02-03T02:00:12.821Z,7.05
2023-02-03T02:03:24.055Z,7.13
2023-02-03T02:06:27.609Z,7.05
2023-02-03T02:09:31.179Z,6.85
2023-02-03T02:12:34.816Z,6.92
2023-02-03T02:15:50.656Z,7.02
2023-02-03T02:19:23.492Z,7.08
2023-02-03T02:22:32.447Z,7.01
2023-02-03T02:25:55.980Z,7.07
2023-02-03T02:29:22.415Z,6.94
2023-02-03T02:32:37.174Z,7.14
2023-02-03T02:35:52.202Z,7.20
2023-02-03T02:39:02.753Z,7.12
2023-02-03T02:42:12.079Z,6.82
2023-02-03T02:45:24.099Z,6.89
2023-02-03T02:48:33.849Z,6.98
2023-02-03T02:51:40.523Z,6.95
2023-02-03T02:54:49.690Z,6.71
2023-02-03T02:57:57.179Z,6.75
2023-02-03T03:01:04.003Z,6.77
2023-02-03T03:04:12.260Z,6.97
2023-02-03T03:07:22.980Z,6.93
2023-02-03T03:10:32.098Z,6.93
2023-02-03T03:13:40.711Z,6.88
2023-02-03T03:16:48.987Z,6.69
2023-02-03T03:19:57.586Z,6.88
2023-02-03T03:23:06.431Z,6.77
2023-02-03T03:26:14.455Z,6.88
2023-02-03T03:29:22.175Z,6.84
2023-02-03T03:32:28.310Z,6.77
2023-02-03T03:35:40.292Z,6.67
2023-02-03T03:38:47.797Z,6.63
2023-02-03T03:41:59.150Z,6.48
2023-02-03T03:45:07.539Z,6.57
2023-02-03T03:48:15.089Z,6.54
2023-02-03T03:51:23.421Z,6.48
2023-02-03T03:54:29.161Z,6.40
2023-02-03T03:57:38.424Z,6.62
2023-02-03T04:00:43.301Z,6.44
2023-02-03T04:03:49.937Z,6.71
2023-02-03T04:06:56.099Z,6.67
2023-02-03T04:10:00.035Z,6.81
2023-02-03T04:13:04.505Z,6.79
2023-02-03T04:16:08.263Z,6.87
2023-02-03T04:19:11.886Z,6.90
2023-02-03T04:22:17.114Z,6.80
2023-02-03T04:25:20.666Z,6.81
2023-02-03T04:28:24.188Z,6.74
2023-02-03T04:31:27.821Z,6.90
2023-02-03T04:34:31.574Z,6.87
2023-02-03T04:37:36.444Z,6.64
2023-02-03T04:40:40.000Z,6.70
2023-02-03T04:43:43.582Z,6.63
2023-02-03T04:46:47.068Z,6.84
2023-02-03T04:49:50.584Z,6.90
2023-02-03T04:52:55.603Z,6.72
2023-02-03T04:55:59.245Z,6.79
2023-02-03T04:59:02.788Z,6.77
2023-02-03T05:02:06.817Z,6.53
2023-02-03T05:05:10.284Z,6.59
2023-02-03T05:08:15.234Z,6.61
2023-02-03T05:11:18.770Z,6.57
2023-02-03T05:14:22.693Z,6.59
2023-02-03T05:17:26.349Z,6.35
2023-02-03T05:20:29.853Z,6.48
2023-02-03T05:23:36.708Z,6.52
2023-02-03T05:26:40.522Z,6.51
2023-02-03T05:29:44.188Z,6.36
2023-02-03T05:32:47.718Z,6.40
2023-02-03T05:35:51.329Z,6.50
2023-02-03T05:38:56.281Z,6.42
2023-02-03T05:41:59.361Z,6.49
2023-02-03T05:45:02.793Z,6.25
2023-02-03T05:48:07.560Z,6.30
2023-02-03T05:51:11.128Z,6.42
2023-02-03T05:54:16.568Z,6.34
2023-02-03T05:57:20.017Z,6.32
2023-02-03T06:00:24.940Z,6.26
2023-02-03T06:03:28.861Z,5.97
2023-02-03T06:06:34.600Z,6.16
2023-02-03T06:09:39.995Z,6.19
2023-02-03T06:12:44.077Z,6.23
2023-02-03T06:15:47.873Z,6.42
2023-02-03T06:18:51.662Z,6.64
2023-02-03T06:21:55.300Z,6.96
2023-02-03T06:25:00.508Z,6.75
2023-02-03T06:28:04.315Z,6.81
2023-02-03T06:31:08.717Z,6.66
2023-02-03T06:34:12.609Z,7.17
2023-02-03T06:37:16.836Z,7.30
2023-02-03T06:40:22.330Z,7.52
2023-02-03T06:43:26.000Z,7.32
2023-02-03T06:46:30.874Z,7.59
2023-02-03T06:49:34.647Z,7.62
2023-02-03T06:52:38.342Z,7.50
2023-02-03T06:55:43.457Z,7.52
2023-02-03T06:58:47.233Z,7.66
2023-02-03T07:01:50.909Z,7.68
2023-02-03T07:04:54.788Z,7.74
2023-02-03T07:07:59.351Z,7.79
2023-02-03T07:11:04.560Z,7.92
2023-02-03T07:14:08.365Z,8.31
2023-02-03T07:17:12.144Z,8.60
2023-02-03T07:20:16.080Z,8.76
2023-02-03T07:23:20.424Z,8.79
2023-02-03T07:26:26.776Z,9.09
2023-02-03T07:29:30.553Z,9.12
2023-02-03T07:32:34.184Z,9.28
2023-02-03T07:35:37.944Z,8.98
2023-02-03T07:38:41.650Z,8.88
2023-02-03T07:41:46.927Z,8.49
2023-02-03T07:44:50.723Z,8.78
2023-02-03T07:47:54.342Z,8.85
2023-02-03T07:50:58.130Z,9.32
2023-02-03T07:54:01.731Z,9.53
2023-02-03T07:57:07.043Z,9.95
2023-02-03T08:00:12.623Z,10.28
2023-02-03T08:03:16.470Z,10.21
2023-02-03T08:06:20.220Z,10.28
2023-02-03T08:09:23.935Z,10.16
2023-02-03T08:12:29.040Z,10.19
2023-02-03T08:15:32.790Z,10.36
2023-02-03T08:18:36.766Z,10.40
2023-02-03T08:21:40.585Z,10.48
2023-02-03T08:24:46.267Z,10.10
2023-02-03T08:27:51.468Z,10.31
2023-02-03T08:30:56.766Z,10.77
2023-02-03T08:34:00.740Z,10.62
2023-02-03T08:37:04.553Z,10.82
2023-02-03T08:40:09.291Z,10.97
2023-02-03T08:43:14.380Z,10.78
2023-02-03T08:46:18.043Z,11.10
2023-02-03T08:49:22.414Z,11.19
2023-02-03T08:52:26.247Z,11.25
2023-02-03T08:55:29.996Z,11.14
2023-02-03T08:58:35.813Z,11.82
2023-02-03T09:01:41.034Z,11.58
2023-02-03T09:04:44.955Z,11.90
2023-02-03T09:07:48.703Z,12.25
2023-02-03T09:10:52.314Z,12.19
2023-02-03T09:13:58.291Z,11.92
2023-02-03T09:17:03.518Z,12.29
2023-02-03T09:20:09.244Z,12.03
2023-02-03T09:23:12.924Z,12.53
2023-02-03T09:26:17.481Z,11.95
2023-02-03T09:29:23.368Z,12.26
2023-02-03T09:32:27.204Z,12.34
2023-02-03T09:35:30.959Z,12.33
2023-02-03T09:38:36.208Z,12.43
2023-02-03T09:41:57.551Z,12.11
2023-02-03T09:45:16.533Z,12.41
2023-02-03T09:48:24.531Z,12.73
2023-02-03T09:51:33.869Z,13.13
2023-02-03T09:54:43.977Z,13.05
2023-02-03T09:57:54.092Z,13.08
2023-02-03T10:01:02.655Z,13.03
2023-02-03T10:04:28.061Z,12.79
2023-02-03T10:07:41.606Z,12.86
2023-02-03T10:11:09.871Z,12.35
2023-02-03T10:14:29.898Z,12.64
2023-02-03T10:17:39.608Z,13.38
2023-02-03T10:20:48.407Z,13.63
2023-02-03T10:23:55.292Z,13.53
2023-02-03T10:26:59.149Z,12.36
2023-02-03T10:30:19.498Z,11.90
2023-02-03T10:33:28.479Z,11.52
2023-02-03T10:36:43.725Z,12.39
2023-02-03T10:39:49.715Z,13.06
2023-02-03T10:43:11.556Z,13.19
2023-02-03T10:46:15.988Z,13.36
2023-02-03T10:49:22.629Z,13.58
2023-02-03T10:52:29.930Z,13.40
2023-02-03T10:55:33.679Z,13.84
2023-02-03T10:58:39.761Z,13.93
2023-02-03T11:01:46.175Z,13.86
2023-02-03T11:05:10.732Z,13.65
2023-02-03T11:08:16.850Z,14.14
2023-02-03T11:11:26.243Z,14.25
2023-02-03T11:14:38.508Z,14.45
2023-02-03T11:17:46.002Z,14.06
2023-02-03T11:20:51.326Z,13.86
2023-02-03T11:24:08.322Z,14.07
2023-02-03T11:27:14.982Z,14.29
2023-02-03T11:30:22.422Z,14.17
2023-02-03T11:33:29.005Z,14.38
2023-02-03T11:36:36.098Z,13.78
2023-02-03T11:39:39.908Z,14.11
2023-02-03T11:42:46.028Z,13.37
2023-02-03T11:45:52.180Z,13.71
2023-02-03T11:49:07.613Z,14.03
2023-02-03T11:52:30.392Z,13.89
2023-02-03T11:55:53.473Z,13.99
2023-02-03T11:59:13.198Z,13.96
2023-02-03T12:02:43.644Z,14.07
2023-02-03T12:06:08.408Z,14.12
2023-02-03T12:09:30.158Z,13.15
2023-02-03T12:12:47.914Z,13.82
2023-02-03T12:16:15.878Z,13.17
2023-02-03T12:19:27.890Z,12.55
2023-02-03T12:22:45.235Z,12.41
2023-02-03T12:26:06.074Z,12.07
2023-02-03T12:29:16.235Z,12.13
2023-02-03T12:32:28.172Z,12.24
2023-02-03T12:35:36.316Z,11.83
2023-02-03T12:38:45.153Z,11.69
2023-02-03T12:41:56.691Z,11.94
2023-02-03T12:45:06.776Z,11.79
2023-02-03T12:48:16.941Z,11.52
2023-02-03T12:51:31.155Z,11.35
2023-02-03T12:54:45.573Z,11.16
2023-02-03T12:57:55.424Z,11.19
2023-02-03T13:01:03.425Z,11.02
2023-02-03T13:04:12.783Z,11.23
2023-02-03T13:07:24.099Z,11.13
2023-02-03T13:10:33.860Z,11.21
2023-02-03T13:13:44.346Z,11.45
2023-02-03T13:16:54.485Z,11.50
2023-02-03T13:20:02.913Z,11.35
2023-02-03T13:23:10.716Z,11.36
2023-02-03T13:26:54.308Z,11.46
2023-02-03T13:30:20.069Z,11.49
2023-02-03T13:33:47.799Z,11.47
2023-02-03T13:37:12.568Z,11.78
2023-02-03T13:40:30.469Z,12.13
2023-02-03T13:43:39.301Z,12.33
2023-02-03T13:46:44.721Z,11.74
2023-02-03T13:49:53.925Z,11.63
2023-02-03T13:53:04.028Z,11.96
2023-02-03T13:56:09.808Z,12.07
2023-02-03T13:59:32.147Z,11.98
2023-02-03T14:02:56.121Z,11.58
2023-02-03T14:06:01.903Z,11.88
2023-02-03T14:09:20.542Z,11.87
2023-02-03T14:12:56.839Z,12.19
2023-02-03T14:16:22.999Z,12.26
2023-02-03T14:19:58.088Z,11.89
2023-02-03T14:23:11.115Z,11.68
2023-02-03T14:26:32.801Z,11.44
2023-02-03T14:29:37.945Z,10.94
2023-02-03T14:32:52.168Z,10.95
2023-02-03T14:35:57.279Z,10.82
2023-02-03T14:39:03.954Z,10.73
2023-02-03T14:42:21.554Z,10.56
2023-02-03T14:45:41.649Z,10.86
2023-02-03T14:48:57.601Z,10.84
2023-02-03T14:52:26.021Z,10.72
2023-02-03T14:55:51.442Z,10.76
2023-02-03T14:59:01.029Z,10.66
2023-02-03T15:02:16.252Z,10.35
2023-02-03T15:05:41.353Z,10.14
2023-02-03T15:08:48.062Z,10.19
2023-02-03T15:11:51.802Z,10.27
2023-02-03T15:14:55.619Z,9.91
2023-02-03T15:18:01.243Z,9.83
2023-02-03T15:21:06.643Z,9.62
2023-02-03T15:24:16.183Z,9.81
2023-02-03T15:27:24.005Z,9.82
2023-02-03T15:30:30.645Z,9.59
2023-02-03T15:33:38.368Z,9.52
2023-02-03T15:36:45.467Z,9.42
2023-02-03T15:40:00.243Z,9.44
2023-02-03T15:43:09.096Z,9.29
2023-02-03T15:46:18.942Z,9.47
2023-02-03T15:49:27.396Z,9.26
2023-02-03T15:52:33.957Z,9.06
2023-02-03T15:55:43.257Z,9.25
2023-02-03T15:58:48.369Z,9.11
2023-02-03T16:01:53.223Z,8.94
2023-02-03T16:04:57.817Z,8.94
2023-02-03T16:08:37.759Z,8.93
2023-02-03T16:11:43.160Z,8.95
2023-02-03T16:14:47.464Z,8.96
2023-02-03T16:17:57.345Z,8.56
2023-02-03T16:21:01.037Z,8.39
2023-02-03T16:24:05.843Z,8.42
2023-02-03T16:27:33.597Z,8.68
2023-02-03T16:30:55.488Z,8.58
2023-02-03T16:34:16.641Z,8.27
2023-02-03T16:37:43.265Z,8.23
2023-02-03T16:41:06.266Z,8.51
2023-02-03T16:44:31.172Z,8.29
2023-02-03T16:47:51.945Z,8.41
2023-02-03T16:50:58.952Z,8.42
2023-02-03T16:54:03.127Z,8.40
2023-02-03T16:57:06.830Z,8.24
2023-02-03T17:00:14.538Z,8.30
2023-02-03T17:03:20.444Z,8.25
2023-02-03T17:06:24.095Z,8.31
2023-02-03T17:09:28.306Z,8.31
2023-02-03T17:12:33.768Z,7.69
2023-02-03T17:15:42.940Z,7.99
2023-02-03T17:18:47.743Z,8.04
2023-02-03T17:21:51.804Z,7.84
2023-02-03T17:24:55.887Z,8.06
2023-02-03T17:27:59.517Z,7.70
2023-02-03T17:31:06.843Z,7.94
2023-02-03T17:34:10.656Z,8.11
2023-02-03T17:37:14.595Z,8.04
2023-02-03T17:53:46.473Z,8.18
2023-02-03T17:56:50.256Z,8.06
2023-02-03T17:59:55.621Z,8.39
2023-02-03T18:03:01.038Z,7.84
2023-02-03T18:06:06.572Z,7.49
2023-02-03T18:09:14.331Z,7.55
2023-02-03T18:12:17.913Z,7.62
2023-02-03T18:15:21.642Z,7.28
2023-02-03T18:18:27.007Z,7.31
2023-02-03T18:21:32.664Z,7.16
2023-02-03T18:24:36.316Z,7.14
2023-02-03T18:27:39.985Z,7.32
2023-02-03T18:30:43.819Z,6.99
2023-02-03T18:33:49.670Z,7.01
2023-02-03T18:36:53.382Z,7.52
2023-02-03T18:39:57.072Z,7.50
2023-02-03T18:43:01.201Z,7.11
2023-02-03T18:46:08.122Z,7.15
2023-02-03T18:49:14.129Z,7.24
2023-02-03T18:52:17.872Z,7.49
2023-02-03T18:55:21.556Z,7.53
2023-02-03T18:58:25.236Z,7.42
2023-02-03T19:01:31.008Z,7.33
2023-02-03T19:04:36.474Z,7.48
2023-02-03T19:07:40.151Z,7.32
2023-02-03T19:10:43.916Z,7.20
2023-02-03T19:13:47.865Z,7.14
2023-02-03T19:16:53.209Z,7.39
2023-02-03T19:19:58.274Z,7.14
2023-02-03T19:23:03.618Z,7.42
2023-02-03T19:26:07.435Z,7.24
2023-02-03T19:29:11.152Z,7.33
2023-02-03T19:32:15.164Z,7.42
2023-02-03T19:35:20.303Z,7.47
2023-02-03T19:38:23.965Z,7.05
2023-02-03T19:41:27.752Z,7.24
2023-02-03T19:44:31.568Z,7.26
2023-02-03T19:47:35.904Z,7.21
2023-02-03T19:50:45.944Z,7.03
2023-02-03T19:53:49.662Z,7.06
2023-02-03T19:56:53.599Z,7.09
2023-02-03T19:59:58.064Z,7.09
2023-02-03T20:03:02.028Z,6.75
2023-02-03T20:06:07.696Z,6.74
2023-02-03T20:09:11.388Z,6.98
2023-02-03T20:12:15.050Z,7.18
2023-02-03T20:15:19.053Z,7.44
2023-02-03T20:18:22.801Z,7.42
2023-02-03T20:21:27.983Z,7.52
2023-02-03T20:24:31.676Z,7.46
2023-02-03T20:27:35.494Z,7.39
2023-02-03T20:30:39.460Z,7.58
2023-02-03T20:33:43.230Z,7.53
2023-02-03T20:36:48.485Z,7.52
2023-02-03T20:39:52.208Z,7.59
2023-02-03T20:42:56.032Z,7.43
2023-02-03T20:45:59.678Z,7.61
2023-02-03T20:49:03.482Z,7.53
2023-02-03T20:52:12.703Z,7.56
2023-02-03T20:55:19.944Z,7.56
2023-02-03T20:58:26.131Z,7.59
2023-02-03T21:01:30.186Z,7.46
2023-02-03T21:04:51.191Z,7.41
2023-02-03T21:07:56.830Z,7.45
2023-02-03T21:11:00.646Z,7.46
2023-02-03T21:14:06.460Z,7.26
2023-02-03T21:17:17.283Z,7.42
2023-02-03T21:20:28.448Z,7.52
2023-02-03T21:23:40.369Z,7.40
2023-02-03T21:26:46.935Z,7.39
2023-02-03T21:29:52.189Z,7.02
2023-02-03T21:32:55.982Z,7.00
2023-02-03T21:36:00.198Z,6.78
2023-02-03T21:39:23.854Z,6.75
2023-02-03T21:42:42.846Z,7.22
2023-02-03T21:45:47.002Z,7.26
2023-02-03T21:48:52.551Z,7.27
2023-02-03T21:51:56.372Z,7.33
2023-02-03T21:55:01.559Z,6.15
2023-02-03T21:58:20.365Z,7.06
2023-02-03T22:01:26.321Z,7.36
2023-02-03T22:04:31.257Z,7.39
2023-02-03T22:07:35.481Z,7.17
2023-02-03T22:10:40.566Z,7.25
2023-02-03T22:13:44.417Z,7.31
2023-02-03T22:16:48.716Z,7.17
2023-02-03T22:19:52.606Z,7.50
2023-02-03T22:22:56.276Z,7.56
2023-02-03T22:26:01.633Z,7.49
2023-02-03T22:29:05.895Z,7.56
2023-02-03T22:32:09.623Z,7.29
2023-02-03T22:35:14.021Z,7.24
2023-02-03T22:38:17.903Z,7.52
2023-02-03T22:41:23.207Z,7.39
2023-02-03T22:44:26.957Z,7.56
2023-02-03T22:47:30.615Z,7.02
2023-02-03T22:50:36.148Z,7.48
2023-02-03T22:53:40.435Z,7.41
2023-02-03T22:56:45.596Z,6.94
2023-02-03T22:59:49.566Z,7.39
2023-02-03T23:02:53.349Z,7.52
2023-02-03T23:05:57.166Z,7.31
2023-02-03T23:09:01.047Z,7.65
2023-02-03T23:12:07.259Z,7.50
2023-02-03T23:15:11.737Z,7.48
2023-02-03T23:18:15.467Z,7.67
2023-02-03T23:21:19.272Z,7.80
2023-02-03T23:24:23.009Z,7.80
2023-02-03T23:27:28.416Z,7.86
2023-02-03T23:30:32.419Z,7.76
2023-02-03T23:33:36.282Z,7.77
2023-02-03T23:36:39.066Z,7.45
2023-02-03T23:39:42.725Z,7.67
2023-02-03T23:42:48.058Z,7.45
2023-02-03T23:45:51.809Z,7.57
2023-02-03T23:48:55.560Z,7.61
2023-02-03T23:51:59.598Z,7.49
2023-02-03T23:55:05.904Z,7.54
2023-02-03T23:58:11.033Z,7.67
